Time;durP1;ratioP1;P1;durP2;ratioP2;P2;SDS_P1;SDS_P2;PMS_P1;PMS_P2;Temp;Humidity;BMP_temperature;BMP_pressure;BME280_temperature;BME280_humidity;BME280_pressure;Samples;Min_cycle;Max_cycle;Signal;HPM_P1;HPM_P2
2024/01/29 00:01:13;;;;;;;;;49.25;39.25;;;;;6.09;100.00;100739.63;6119425;28;96402;-54
2024/01/29 00:04:16;;;;;;;;;49.50;38.75;;;;;6.03;100.00;100722.31;6118399;28;96291;-54
2024/01/29 00:07:21;;;;;;;;;49.00;38.00;;;;;6.16;100.00;100731.84;6118301;28;96293;-55
2024/01/29 00:10:25;;;;;;;;;46.60;37.00;;;;;6.19;100.00;100731.53;6129269;28;96825;-57
2024/01/29 00:13:28;;;;;;;;;47.00;37.50;;;;;6.19;100.00;100731.53;6117157;28;96899;-57
2024/01/29 00:16:32;;;;;;;;;45.00;38.00;;;;;6.15;100.00;100722.13;6118845;28;96464;-58
2024/01/29 00:19:35;;;;;;;;;48.60;39.00;;;;;6.13;100.00;100727.63;6122000;28;96571;-57
2024/01/29 00:22:39;;;;;;;;;46.40;38.00;;;;;6.11;100.00;100724.22;6128865;28;96297;-57
2024/01/29 00:25:43;;;;;;;;;45.75;35.50;;;;;6.11;100.00;100729.56;6115802;28;96439;-57
2024/01/29 00:28:46;;;;;;;;;49.00;38.00;;;;;6.09;100.00;100735.09;6109001;28;96667;-57
2024/01/29 00:31:49;;;;;;;;;45.40;36.00;;;;;6.08;100.00;100738.75;6090398;28;96501;-58
2024/01/29 00:34:53;;;;;;;;;46.60;36.60;;;;;6.06;100.00;100742.56;6071913;28;99513;-57
2024/01/29 00:37:58;;;;;;;;;42.50;33.25;;;;;6.02;100.00;100747.38;6111767;28;96567;-57
2024/01/29 00:41:01;;;;;;;;;44.60;36.00;;;;;6.02;100.00;100754.56;6129855;28;96335;-57
2024/01/29 00:44:04;;;;;;;;;47.00;38.00;;;;;6.01;100.00;100750.22;6123815;28;96804;-57
2024/01/29 00:47:07;;;;;;;;;47.00;38.00;;;;;5.94;100.00;100758.00;6138603;28;96593;-57
2024/01/29 00:50:11;;;;;;;;;48.20;38.80;;;;;5.98;100.00;100777.28;6121054;28;96313;-57
2024/01/29 00:53:16;;;;;;;;;49.25;39.00;;;;;5.94;100.00;100776.72;6129747;28;96106;-57
2024/01/29 00:56:19;;;;;;;;;44.20;35.00;;;;;6.03;100.00;100789.25;6136340;28;97014;-57
2024/01/29 00:59:22;;;;;;;;;47.00;38.00;;;;;6.01;100.00;100791.22;6125845;28;96611;-57
2024/01/29 01:02:26;;;;;;;;;45.00;37.00;;;;;6.01;100.00;100801.09;6121729;28;96133;-57
2024/01/29 01:05:29;;;;;;;;;47.00;37.40;;;;;5.95;100.00;100793.66;6136597;28;96941;-57
2024/01/29 01:08:33;;;;;;;;;48.60;38.00;;;;;5.91;100.00;100802.97;6122588;28;97087;-57
2024/01/29 01:11:36;;;;;;;;;47.00;36.00;;;;;5.83;100.00;100794.75;6131915;28;96304;-57
2024/01/29 01:14:40;;;;;;;;;45.00;36.50;;;;;5.68;100.00;100791.69;6137664;28;96440;-57
2024/01/29 01:17:43;;;;;;;;;45.00;37.00;;;;;5.72;100.00;100793.09;6117865;28;96402;-57
2024/01/29 01:20:46;;;;;;;;;45.25;36.00;;;;;5.63;100.00;100786.78;6137496;28;96916;-59
2024/01/29 01:23:51;;;;;;;;;42.50;35.75;;;;;5.59;100.00;100771.16;6138170;28;96304;-59
2024/01/29 01:26:54;;;;;;;;;44.00;35.00;;;;;5.48;100.00;100782.00;6132345;28;96390;-59
2024/01/29 01:29:57;;;;;;;;;39.40;33.40;;;;;5.30;100.00;100735.59;6118219;28;96284;-59
2024/01/29 01:33:00;;;;;;;;;45.00;36.00;;;;;5.49;100.00;100778.34;6133888;28;96499;-59
2024/01/29 01:36:04;;;;;;;;;45.80;35.00;;;;;5.50;100.00;100780.88;6131520;28;97378;-59
2024/01/29 01:39:09;;;;;;;;;43.20;35.00;;;;;5.53;100.00;100769.91;6117759;28;96336;-59
2024/01/29 01:42:12;;;;;;;;;41.50;33.25;;;;;5.58;100.00;100769.47;6141324;28;96392;-59
2024/01/29 01:45:15;;;;;;;;;44.00;35.00;;;;;5.59;100.00;100766.66;6140982;28;96338;-58
2024/01/29 01:48:19;;;;;;;;;43.00;34.60;;;;;5.61;100.00;100763.84;6127262;28;96516;-58
2024/01/29 01:51:23;;;;;;;;;34.20;30.60;;;;;5.57;100.00;100763.25;6117698;28;97092;-59
2024/01/29 01:54:28;;;;;;;;;40.00;31.00;;;;;5.61;100.00;100761.16;6117453;28;96368;-59
2024/01/29 01:57:31;;;;;;;;;35.80;30.00;;;;;5.62;100.00;100752.97;6121319;28;96351;-59
2024/01/29 02:00:35;;;;;;;;;33.60;31.00;;;;;5.66;100.00;100754.41;6124521;28;97187;-56
2024/01/29 02:03:40;;;;;;;;;37.20;31.40;;;;;5.68;100.00;100751.56;6150939;22;97466;-57
2024/01/29 02:06:44;;;;;;;;;36.00;30.50;;;;;5.69;100.00;100755.91;6166511;28;97567;-58
2024/01/29 02:09:49;;;;;;;;;27.25;24.00;;;;;5.64;100.00;100744.81;6174078;28;98517;-57
2024/01/29 02:12:53;;;;;;;;;29.00;27.00;;;;;5.55;100.00;100735.81;6192060;28;97632;-58
2024/01/29 02:15:57;;;;;;;;;26.00;23.40;;;;;5.58;100.00;100748.06;6193517;28;96985;-58
2024/01/29 02:19:03;;;;;;;;;29.00;26.00;;;;;5.64;100.00;100750.16;6167494;28;96649;-58
2024/01/29 02:22:06;;;;;;;;;28.40;23.60;;;;;5.67;100.00;100752.53;6189321;28;96313;-58
2024/01/29 02:25:11;;;;;;;;;26.40;25.40;;;;;5.68;100.00;100760.44;6192830;28;96572;-58
2024/01/29 02:28:14;;;;;;;;;24.00;22.00;;;;;5.66;100.00;100756.22;6193584;28;96340;-58
2024/01/29 02:31:18;;;;;;;;;24.00;21.00;;;;;5.67;100.00;100758.72;6192823;28;96829;-58
2024/01/29 02:34:21;;;;;;;;;23.00;21.00;;;;;5.67;100.00;100753.38;6192313;28;96400;-58
2024/01/29 02:37:24;;;;;;;;;27.20;24.20;;;;;5.65;100.00;100747.34;6164041;28;98463;-58
2024/01/29 02:40:29;;;;;;;;;27.20;23.80;;;;;5.58;100.00;100742.69;6169387;28;96346;-58
2024/01/29 02:43:32;;;;;;;;;28.75;25.75;;;;;5.50;100.00;100747.94;6175970;28;96741;-58
2024/01/29 02:46:35;;;;;;;;;32.20;30.00;;;;;5.43;100.00;100754.84;6185137;28;96690;-58
2024/01/29 02:49:38;;;;;;;;;35.20;29.40;;;;;5.35;100.00;100754.72;6191218;28;96750;-58
2024/01/29 02:52:42;;;;;;;;;38.60;32.00;;;;;5.29;100.00;100752.59;6193520;28;97060;-58
2024/01/29 02:55:46;;;;;;;;;36.00;31.50;;;;;5.26;100.00;100750.22;6193655;28;96356;-58
2024/01/29 02:58:49;;;;;;;;;36.00;30.00;;;;;5.18;100.00;100745.59;6179632;28;96369;-58
2024/01/29 03:01:54;;;;;;;;;40.40;33.00;;;;;5.12;100.00;100749.69;6173495;28;96688;-58
2024/01/29 03:04:57;;;;;;;;;37.50;32.00;;;;;4.82;100.00;100715.06;6188635;28;96338;-58
2024/01/29 03:08:00;;;;;;;;;35.00;32.00;;;;;5.01;100.00;100743.63;6180186;28;96574;-58
2024/01/29 03:11:05;;;;;;;;;38.50;33.00;;;;;4.96;100.00;100737.84;6202166;28;96404;-56
2024/01/29 03:14:08;;;;;;;;;37.60;32.60;;;;;4.92;100.00;100742.66;6205138;28;96362;-56
2024/01/29 03:17:11;;;;;;;;;39.60;32.00;;;;;4.93;100.00;100732.81;6205707;28;96915;-55
2024/01/29 03:20:15;;;;;;;;;38.40;33.00;;;;;4.95;100.00;100738.84;6207238;28;96301;-55
2024/01/29 03:23:18;;;;;;;;;37.00;32.00;;;;;4.98;100.00;100731.41;6199813;28;96496;-55
2024/01/29 03:26:22;;;;;;;;;41.40;34.20;;;;;4.98;100.00;100739.44;6179387;28;96609;-56
2024/01/29 03:29:26;;;;;;;;;42.40;35.00;;;;;5.00;100.00;100744.59;6173732;28;98679;-56
2024/01/29 03:32:29;;;;;;;;;39.75;33.00;;;;;4.94;100.00;100755.84;6163565;28;96414;-55
2024/01/29 03:35:32;;;;;;;;;35.80;32.00;;;;;4.82;100.00;100752.50;6192423;28;96411;-55
2024/01/29 03:38:35;;;;;;;;;38.00;32.80;;;;;4.68;100.00;100740.38;6205636;28;96541;-56
2024/01/29 03:41:39;;;;;;;;;39.20;31.40;;;;;4.67;100.00;100730.69;6187064;28;96336;-55
2024/01/29 03:44:43;;;;;;;;;38.00;32.60;;;;;4.70;100.00;100735.72;6187362;28;96834;-56
2024/01/29 03:47:46;;;;;;;;;38.00;32.00;;;;;4.68;100.00;100724.34;6177696;28;96339;-55
2024/01/29 03:50:49;;;;;;;;;36.60;31.00;;;;;4.67;100.00;100724.47;6177255;28;98480;-55
2024/01/29 03:53:52;;;;;;;;;40.00;32.00;;;;;4.73;100.00;100724.78;6171047;28;98983;-55
2024/01/29 03:56:56;;;;;;;;;41.20;35.40;;;;;4.73;100.00;100719.44;6205034;28;96267;-56
2024/01/29 03:59:59;;;;;;;;;36.80;32.00;;;;;4.75;100.00;100730.81;6183099;28;96432;-55
2024/01/29 04:03:13;;;;;;;;;39.00;33.00;;;;;4.74;100.00;100723.78;6185633;28;97018;-56
2024/01/29 04:06:16;;;;;;;;;37.00;31.00;;;;;4.74;100.00;100721.09;6163367;28;96249;-55
2024/01/29 04:09:21;;;;;;;;;35.40;31.40;;;;;4.76;100.00;100716.47;6150489;28;99063;-56
2024/01/29 04:12:26;;;;;;;;;33.60;30.40;;;;;4.80;100.00;100709.00;6171114;28;97146;-55
2024/01/29 04:15:29;;;;;;;;;36.60;32.60;;;;;4.84;100.00;100704.25;6168324;28;97019;-55
2024/01/29 04:18:33;;;;;;;;;36.40;32.00;;;;;4.83;100.00;100708.75;6148373;28;96985;-56
2024/01/29 04:21:36;;;;;;;;;43.00;32.20;;;;;4.77;100.00;100707.47;6165588;28;96421;-56
2024/01/29 04:24:39;;;;;;;;;33.60;30.00;;;;;4.70;100.00;100687.63;6177936;28;96500;-56
2024/01/29 04:27:46;;;;;;;;;36.00;32.00;;;;;4.72;100.00;100693.69;6178722;28;96465;-56
2024/01/29 04:30:49;;;;;;;;;37.20;32.00;;;;;4.69;100.00;100691.28;6178727;28;96407;-56
2024/01/29 04:33:52;;;;;;;;;36.00;32.00;;;;;4.65;100.00;100686.38;6147656;28;97198;-55
2024/01/29 04:36:55;;;;;;;;;37.00;31.00;;;;;4.65;100.00;100694.38;6161758;28;96383;-55
2024/01/29 04:39:58;;;;;;;;;37.00;31.40;;;;;4.60;100.00;100692.13;6180071;28;96384;-56
2024/01/29 04:43:03;;;;;;;;;36.00;27.75;;;;;4.57;100.00;100684.41;6162913;28;96444;-56
2024/01/29 04:46:06;;;;;;;;;34.00;28.40;;;;;4.56;100.00;100684.53;6177181;28;97261;-56
2024/01/29 04:49:09;;;;;;;;;31.80;28.00;;;;;4.54;100.00;100681.19;6174049;28;96505;-55
2024/01/29 04:52:14;;;;;;;;;27.60;25.00;;;;;4.47;100.00;100672.03;6178607;28;96199;-56
2024/01/29 04:55:18;;;;;;;;;33.60;29.40;;;;;4.49;100.00;100681.59;6177003;28;96543;-56
2024/01/29 04:58:22;;;;;;;;;27.80;23.80;;;;;4.47;100.00;100683.53;6173732;28;96365;-56
2024/01/29 05:01:25;;;;;;;;;29.50;25.75;;;;;4.46;100.00;100689.88;6175307;28;96325;-56
2024/01/29 05:04:29;;;;;;;;;32.80;29.00;;;;;4.46;100.00;100684.53;6180734;28;96456;-55
2024/01/29 05:07:32;;;;;;;;;32.50;26.50;;;;;4.47;100.00;100691.56;6174378;28;97382;-56
2024/01/29 05:10:35;;;;;;;;;26.00;25.00;;;;;4.48;100.00;100679.91;6176877;28;96308;-55
2024/01/29 05:13:42;;;;;;;;;31.00;28.40;;;;;4.42;100.00;100676.94;6176084;28;96916;-55
2024/01/29 05:16:46;;;;;;;;;29.80;26.40;;;;;4.44;100.00;100686.50;6171136;28;96641;-56
2024/01/29 05:19:49;;;;;;;;;31.40;30.00;;;;;4.43;100.00;100691.97;6149049;28;98086;-56
2024/01/29 05:22:52;;;;;;;;;27.00;24.00;;;;;4.37;100.00;100680.03;6146692;28;97299;-57
2024/01/29 05:25:56;;;;;;;;;30.20;28.00;;;;;4.30;100.00;100698.41;6161476;28;96364;-55
2024/01/29 05:29:00;;;;;;;;;34.60;30.00;;;;;4.27;100.00;100697.84;6147124;28;96955;-56
2024/01/29 05:32:04;;;;;;;;;30.80;27.20;;;;;4.23;100.00;100694.63;6161751;28;96954;-55
2024/01/29 05:35:09;;;;;;;;;30.00;27.00;;;;;4.08;100.00;100671.09;6169777;28;96361;-55
2024/01/29 05:38:12;;;;;;;;;34.00;30.00;;;;;4.18;100.00;100693.34;6158385;28;96782;-55
2024/01/29 05:41:15;;;;;;;;;31.75;29.00;;;;;4.13;100.00;100687.56;6175582;28;96346;-55
2024/01/29 05:44:20;;;;;;;;;27.60;26.00;;;;;4.10;100.00;100688.69;6178778;28;96569;-55
2024/01/29 05:47:23;;;;;;;;;31.00;29.00;;;;;4.07;100.00;100688.09;6172663;28;97124;-55
2024/01/29 05:50:26;;;;;;;;;33.40;30.00;;;;;4.06;100.00;100697.94;6170742;28;96436;-55
2024/01/29 05:53:29;;;;;;;;;30.00;27.00;;;;;4.05;100.00;100698.94;6176653;28;96321;-56
2024/01/29 05:56:32;;;;;;;;;34.00;28.80;;;;;4.02;100.00;100693.84;6175762;28;96533;-55
2024/01/29 05:59:39;;;;;;;;;33.60;30.00;;;;;4.01;100.00;100697.50;6175020;28;96996;-56
2024/01/29 06:02:45;;;;;;;;;36.40;31.40;;;;;3.99;100.00;100712.81;6175481;28;96972;-55
2024/01/29 06:05:49;;;;;;;;;35.75;32.00;;;;;3.96;100.00;100713.06;6173964;28;96484;-55
2024/01/29 06:08:52;;;;;;;;;33.80;30.00;;;;;3.96;100.00;100718.41;6163634;28;98284;-55
2024/01/29 06:11:55;;;;;;;;;38.40;30.40;;;;;3.98;100.00;100734.28;6158149;28;96282;-55
2024/01/29 06:14:59;;;;;;;;;36.40;32.40;;;;;3.98;100.00;100728.94;6163336;28;97094;-55
2024/01/29 06:18:03;;;;;;;;;44.40;35.00;;;;;3.98;100.00;100729.78;6181592;28;96619;-55
2024/01/29 06:21:06;;;;;;;;;36.40;30.60;;;;;4.01;100.00;100726.84;6166749;28;97002;-55
2024/01/29 06:24:09;;;;;;;;;34.75;31.00;;;;;4.02;100.00;100727.69;6167369;28;96265;-55
2024/01/29 06:27:12;;;;;;;;;38.00;31.80;;;;;4.05;100.00;100724.78;6182272;28;96330;-55
2024/01/29 06:30:17;;;;;;;;;34.80;29.00;;;;;4.06;100.00;100732.63;6164021;28;97258;-55
2024/01/29 06:33:21;;;;;;;;;33.60;30.00;;;;;4.14;100.00;100732.81;6182444;28;96384;-55
2024/01/29 06:36:24;;;;;;;;;37.60;32.00;;;;;4.43;100.00;100738.22;6164422;28;96286;-55
2024/01/29 06:39:28;;;;;;;;;37.60;31.00;;;;;5.28;100.00;100740.25;6183277;28;96343;-57
2024/01/29 06:42:31;;;;;;;;;32.80;29.80;;;;;6.18;100.00;100738.72;6174070;28;96999;-57
2024/01/29 06:45:36;;;;;;;;;36.40;31.60;;;;;7.35;100.00;100735.88;6171899;28;96353;-57
2024/01/29 06:48:39;;;;;;;;;45.00;36.00;;;;;8.55;100.00;100738.59;6173159;28;96377;-57
2024/01/29 06:51:42;;;;;;;;;36.20;31.80;;;;;9.14;100.00;100742.88;6172141;28;96851;-57
2024/01/29 06:54:45;;;;;;;;;36.00;31.60;;;;;8.79;100.00;100732.44;6173358;28;96239;-57
2024/01/29 06:57:49;;;;;;;;;37.40;31.40;;;;;8.24;100.00;100730.22;6172653;28;96510;-57
2024/01/29 07:00:54;;;;;;;;;30.40;28.40;;;;;7.75;100.00;100729.13;6154112;28;96345;-57
2024/01/29 07:03:58;;;;;;;;;37.75;32.00;;;;;7.40;100.00;100732.72;6176978;28;96534;-57
2024/01/29 07:07:01;;;;;;;;;34.00;30.00;;;;;7.20;100.00;100726.72;6190208;28;96294;-57
2024/01/29 07:10:06;;;;;;;;;35.00;30.50;;;;;7.09;100.00;100718.06;6194836;28;96328;-57
2024/01/29 07:13:09;;;;;;;;;29.40;27.20;;;;;7.16;100.00;100722.66;6195664;28;96754;-57
2024/01/29 07:16:14;;;;;;;;;33.00;30.00;;;;;7.34;100.00;100736.03;6195911;28;96317;-57
2024/01/29 07:19:22;;;;;;;;;35.20;30.00;;;;;7.44;100.00;100741.31;6194251;28;96611;-57
2024/01/29 07:22:25;;;;;;;;;36.00;32.00;;;;;7.45;100.00;100735.78;6194540;28;96335;-57
2024/01/29 07:25:29;;;;;;;;;40.00;32.00;;;;;7.56;100.00;100732.03;6176102;28;96510;-57
2024/01/29 07:28:32;;;;;;;;;41.40;33.00;;;;;7.90;100.00;100737.44;6195520;28;96318;-57
2024/01/29 07:31:36;;;;;;;;;37.00;32.40;;;;;8.76;100.00;100736.25;6195833;28;96484;-57
2024/01/29 07:34:40;;;;;;;;;37.00;32.00;;;;;10.06;100.00;100736.22;6193140;28;96510;-57
2024/01/29 07:37:43;;;;;;;;;32.50;30.00;;;;;12.69;100.00;100741.63;6172153;28;96394;-57
2024/01/29 07:40:46;;;;;;;;;38.00;32.00;;;;;15.84;97.21;100736.28;6173344;28;96320;-58
2024/01/29 07:43:50;;;;;;;;;34.00;31.75;;;;;18.73;81.79;100738.94;6171302;28;96370;-58
2024/01/29 07:46:54;;;;;;;;;35.40;31.40;;;;;21.22;69.51;100728.16;6171820;28;96311;-58
2024/01/29 07:49:57;;;;;;;;;37.20;31.20;;;;;23.36;61.93;100722.63;6169511;28;96355;-61
2024/01/29 07:53:00;;;;;;;;;35.80;31.00;;;;;25.21;53.41;100722.34;6163740;28;96927;-61
2024/01/29 07:56:06;;;;;;;;;30.75;28.00;;;;;26.84;48.44;100716.28;6163603;28;96428;-61
2024/01/29 07:59:09;;;;;;;;;35.00;31.40;;;;;28.09;43.44;100700.94;6163296;28;96268;-62
2024/01/29 08:02:14;;;;;;;;;36.00;30.00;;;;;28.97;41.90;100695.72;6163145;28;96389;-61
2024/01/29 08:05:17;;;;;;;;;33.00;30.20;;;;;29.62;38.09;100684.66;6145461;28;96341;-61
2024/01/29 08:08:20;;;;;;;;;28.00;26.60;;;;;30.36;36.32;100694.69;6139423;28;96496;-61
2024/01/29 08:11:23;;;;;;;;;28.00;26.00;;;;;31.06;35.11;100688.78;6139330;28;96640;-59
2024/01/29 08:14:27;;;;;;;;;26.00;24.00;;;;;32.03;33.28;100684.34;6139103;28;96704;-60
2024/01/29 08:17:31;;;;;;;;;26.00;23.80;;;;;33.17;30.92;100682.41;6139321;28;96460;-60
2024/01/29 08:20:34;;;;;;;;;25.00;24.40;;;;;34.12;29.30;100677.44;6138757;28;96683;-60
2024/01/29 08:23:38;;;;;;;;;29.50;27.50;;;;;34.93;28.08;100675.22;6138882;28;96342;-60
2024/01/29 08:26:41;;;;;;;;;25.40;23.40;;;;;35.69;27.26;100685.28;6138904;28;96377;-60
2024/01/29 08:29:44;;;;;;;;;26.75;24.75;;;;;36.43;26.98;100668.22;6138757;28;97089;-60
2024/01/29 08:32:48;;;;;;;;;24.00;22.50;;;;;37.16;25.41;100659.69;6121275;28;96453;-60
2024/01/29 08:35:52;;;;;;;;;24.00;21.75;;;;;37.96;24.26;100684.88;6138921;28;96454;-59
2024/01/29 08:38:55;;;;;;;;;26.00;24.50;;;;;38.52;24.18;100671.41;6139827;28;97234;-60
2024/01/29 08:41:58;;;;;;;;;24.60;22.00;;;;;39.02;22.99;100669.75;6138778;28;96336;-59
2024/01/29 08:45:01;;;;;;;;;23.80;22.00;;;;;39.25;22.39;100676.28;6138504;28;96356;-60
2024/01/29 08:48:07;;;;;;;;;23.20;22.00;;;;;39.66;22.44;100681.19;6138877;28;96432;-60
2024/01/29 08:51:10;;;;;;;;;27.20;24.80;;;;;40.10;22.26;100695.75;6138714;28;96260;-60
2024/01/29 08:54:13;;;;;;;;;29.60;27.20;;;;;40.09;22.42;100699.75;6138732;28;96675;-60
2024/01/29 08:57:16;;;;;;;;;33.60;30.00;;;;;40.29;22.89;100702.53;6138756;28;96489;-60
2024/01/29 09:00:20;;;;;;;;;40.00;33.00;;;;;40.47;22.60;100707.28;6139599;28;96736;-60
2024/01/29 09:03:24;;;;;;;;;36.00;32.00;;;;;40.55;22.02;100705.41;6122230;28;96714;-59
2024/01/29 09:06:28;;;;;;;;;35.00;32.00;;;;;40.52;21.70;100708.97;6144331;28;98462;-60
2024/01/29 09:09:31;;;;;;;;;35.00;31.25;;;;;40.75;21.62;100697.66;6162837;28;96762;-60
2024/01/29 09:12:35;;;;;;;;;35.40;31.40;;;;;41.00;21.08;100702.47;6183945;28;96467;-60
2024/01/29 09:15:38;;;;;;;;;32.40;29.00;;;;;41.19;21.49;100700.72;6187184;28;97583;-60
2024/01/29 09:18:43;;;;;;;;;33.40;30.40;;;;;41.28;20.80;100690.72;6187130;28;96386;-60
2024/01/29 09:21:48;;;;;;;;;35.00;31.00;;;;;41.43;20.74;100700.19;6186890;28;96397;-60
2024/01/29 09:24:52;;;;;;;;;32.00;30.00;;;;;41.61;20.48;100698.41;6187450;28;96482;-60
2024/01/29 09:27:55;;;;;;;;;32.00;30.00;;;;;41.82;20.33;100704.31;6152477;28;97780;-60
2024/01/29 09:30:58;;;;;;;;;29.40;27.40;;;;;41.90;20.01;100699.53;6144330;28;97539;-61
2024/01/29 09:34:03;;;;;;;;;31.20;29.00;;;;;41.52;19.58;100695.06;6162217;28;96369;-61
2024/01/29 09:37:06;;;;;;;;;31.00;28.40;;;;;41.75;19.46;100690.06;6161965;28;96613;-60
2024/01/29 09:40:12;;;;;;;;;27.50;27.00;;;;;41.72;19.54;100690.84;6162283;28;96381;-60
2024/01/29 09:43:18;;;;;;;;;30.25;27.25;;;;;41.48;19.70;100688.56;6162520;28;96352;-60
2024/01/29 09:46:22;;;;;;;;;32.40;29.00;;;;;41.61;19.28;100700.41;6162924;28;96475;-60
2024/01/29 09:49:27;;;;;;;;;31.00;28.80;;;;;41.83;19.92;100697.44;6150009;28;98953;-60
2024/01/29 09:52:33;;;;;;;;;29.00;28.00;;;;;41.59;19.47;100692.31;6164898;28;98422;-60
2024/01/29 09:55:36;;;;;;;;;31.60;29.00;;;;;41.67;19.24;100691.19;6177118;28;97453;-60
2024/01/29 09:58:39;;;;;;;;;32.20;30.00;;;;;41.95;19.25;100687.84;6165707;28;97417;-60
2024/01/29 10:01:43;;;;;;;;;34.00;31.00;;;;;41.92;19.25;100683.78;6165905;28;96329;-60
2024/01/29 10:04:48;;;;;;;;;33.60;30.60;;;;;41.53;19.34;100681.72;6154041;28;98111;-60
2024/01/29 10:07:53;;;;;;;;;27.00;26.00;;;;;41.41;19.64;100680.75;6141594;28;96878;-60
2024/01/29 10:10:57;;;;;;;;;31.20;29.40;;;;;41.56;18.94;100684.59;6147529;28;96474;-55
2024/01/29 10:14:00;;;;;;;;;32.00;30.00;;;;;41.50;19.31;100675.63;6162296;28;96258;-54
2024/01/29 10:17:04;;;;;;;;;27.00;26.00;;;;;41.91;19.61;100668.00;6142798;28;97021;-55
2024/01/29 10:20:19;;;;;;;;;30.00;29.00;;;;;41.48;18.62;100665.91;6160804;28;96318;-54
2024/01/29 10:23:22;;;;;;;;;32.00;30.00;;;;;41.85;19.21;100660.19;6149510;28;96873;-55
2024/01/29 10:26:26;;;;;;;;;32.50;30.00;;;;;41.56;19.26;100666.78;6159813;28;96395;-55
2024/01/29 10:29:30;;;;;;;;;38.00;32.00;;;;;41.10;19.35;100652.91;6159196;28;96733;-54
2024/01/29 10:32:33;;;;;;;;;33.80;28.80;;;;;41.06;19.26;100637.88;6160409;28;96402;-55
2024/01/29 10:35:37;;;;;;;;;35.00;31.00;;;;;41.66;19.61;100657.59;6159062;28;96351;-56
2024/01/29 10:38:45;;;;;;;;;34.60;32.00;;;;;41.84;19.57;100650.06;6145050;28;96435;-54
2024/01/29 10:41:52;;;;;;;;;34.60;32.00;;;;;42.15;19.43;100643.09;6158702;28;96267;-55
2024/01/29 10:44:59;;;;;;;;;35.00;31.00;;;;;42.45;19.11;100655.09;6171415;28;96361;-55
2024/01/29 10:48:11;;;;;;;;;31.00;29.25;;;;;42.06;18.34;100645.44;6175590;28;96547;-55
2024/01/29 10:51:17;;;;;;;;;35.00;32.00;;;;;42.34;19.04;100632.31;6179520;28;96248;-55
2024/01/29 10:54:21;;;;;;;;;36.80;32.00;;;;;42.63;18.39;100638.19;6146221;28;96545;-55
2024/01/29 10:57:26;;;;;;;;;39.67;34.33;;;;;42.29;18.31;100634.72;6140763;28;96410;-55
2024/01/29 11:00:31;;;;;;;;;41.25;35.00;;;;;42.61;18.75;100632.91;6137998;28;96317;-55
2024/01/29 11:03:36;;;;;;;;;42.00;35.00;;;;;42.85;18.50;100622.13;6121608;28;96905;-55
2024/01/29 11:06:50;;;;;;;;;40.80;35.00;;;;;42.39;18.69;100616.16;6157777;28;96478;-55
2024/01/29 11:10:00;;;;;;;;;40.60;33.40;;;;;42.47;18.99;100620.69;6160952;28;96379;-55
2024/01/29 11:13:05;;;;;;;;;34.40;32.00;;;;;42.65;18.95;100611.06;6160614;28;96172;-56
2024/01/29 11:16:08;;;;;;;;;33.60;31.60;;;;;42.80;18.81;100611.16;6185025;28;96284;-55
2024/01/29 11:19:12;;;;;;;;;35.00;32.00;;;;;42.62;18.46;100611.00;6164041;28;98502;-55
2024/01/29 11:22:16;;;;;;;;;36.40;32.00;;;;;42.12;18.71;100605.03;6168761;28;96654;-60
2024/01/29 11:25:20;;;;;;;;;32.60;30.60;;;;;41.73;19.01;100609.53;6144578;28;98701;-60
2024/01/29 11:28:26;;;;;;;;;33.75;30.75;;;;;42.05;19.33;100604.13;6163108;28;96846;-60
2024/01/29 11:31:39;;;;;;;;;35.00;31.00;;;;;42.31;19.20;100599.09;6157868;28;96440;-60
2024/01/29 11:34:43;;;;;;;;;27.20;25.00;;;;;42.23;18.37;100596.56;6161807;28;96582;-60
2024/01/29 11:37:49;;;;;;;;;25.00;24.40;;;;;42.11;18.82;100600.56;6145910;28;96766;-59
2024/01/29 11:40:52;;;;;;;;;27.00;25.00;;;;;41.75;18.84;100592.94;6130826;28;99567;-59
2024/01/29 11:43:56;;;;;;;;;30.40;28.00;;;;;41.51;18.87;100588.66;6143453;28;96677;-59
2024/01/29 11:47:08;;;;;;;;;31.60;30.00;;;;;41.51;19.04;100583.00;6139174;28;96663;-59
2024/01/29 11:50:11;;;;;;;;;38.00;34.00;;;;;41.71;19.16;100583.59;6149245;28;96405;-60
2024/01/29 11:53:17;;;;;;;;;33.20;30.60;;;;;41.66;19.34;100583.94;6146363;28;96890;-60
2024/01/29 11:56:20;;;;;;;;;35.00;32.00;;;;;41.64;19.57;100584.34;6122025;28;96377;-59
2024/01/29 11:59:24;;;;;;;;;39.00;33.00;;;;;41.54;19.80;100587.09;6144703;28;96541;-59
2024/01/29 12:02:27;;;;;;;;;33.00;31.00;;;;;41.59;19.50;100593.19;6150899;28;97215;-59
2024/01/29 12:05:30;;;;;;;;;36.00;32.20;;;;;41.38;19.72;100579.63;6145119;28;96460;-59
2024/01/29 12:08:36;;;;;;;;;33.40;29.80;;;;;41.26;19.82;100588.38;6140796;28;96499;-59
2024/01/29 12:11:40;;;;;;;;;34.00;30.00;;;;;41.12;20.05;100587.41;6143805;28;96919;-60
2024/01/29 12:14:43;;;;;;;;;30.60;29.00;;;;;40.93;19.89;100588.38;6122726;28;96318;-59
2024/01/29 12:17:48;;;;;;;;;31.80;27.40;;;;;40.56;20.44;100585.44;6137731;28;97650;-61
2024/01/29 12:20:54;;;;;;;;;26.80;24.80;;;;;40.22;20.59;100581.72;6134065;28;98489;-61
2024/01/29 12:23:59;;;;;;;;;25.75;24.00;;;;;39.85;20.35;100587.16;6143143;28;98684;-61
2024/01/29 12:27:02;;;;;;;;;24.60;23.00;;;;;39.50;21.13;100586.50;6137937;28;96925;-59
2024/01/29 12:30:06;;;;;;;;;25.80;23.00;;;;;39.01;21.35;100584.31;6144629;28;96302;-58
2024/01/29 12:33:18;;;;;;;;;23.40;20.60;;;;;38.68;21.36;100575.53;6161946;28;96392;-57
2024/01/29 12:36:21;;;;;;;;;24.00;21.60;;;;;38.24;22.08;100580.56;6162148;28;97489;-59
2024/01/29 12:39:28;;;;;;;;;24.40;23.40;;;;;37.96;22.39;100567.41;6161977;28;96437;-59
2024/01/29 12:42:31;;;;;;;;;25.40;23.20;;;;;37.35;22.85;100567.00;6144031;28;96544;-59
2024/01/29 12:45:36;;;;;;;;;27.00;25.00;;;;;36.40;23.54;100576.22;6161958;28;96393;-59
2024/01/29 12:48:39;;;;;;;;;29.75;26.75;;;;;35.10;24.43;100568.53;6148493;28;96317;-59
2024/01/29 12:51:47;;;;;;;;;27.40;25.40;;;;;33.60;25.64;100576.91;6153804;28;96374;-59
2024/01/29 12:54:56;;;;;;;;;27.00;25.00;;;;;31.94;27.48;100564.38;6150737;28;96856;-59
2024/01/29 12:58:00;;;;;;;;;24.00;23.60;;;;;30.58;29.74;100579.03;6156475;28;97272;-59
2024/01/29 13:01:04;;;;;;;;;27.00;23.75;;;;;29.42;31.44;100582.22;6142860;28;97185;-59
2024/01/29 13:04:08;;;;;;;;;28.25;24.50;;;;;28.41;33.70;100571.56;6128170;28;96424;-59
2024/01/29 13:07:11;;;;;;;;;29.00;24.25;;;;;27.51;35.95;100581.81;6182917;28;96676;-58
2024/01/29 13:10:16;;;;;;;;;28.75;24.00;;;;;26.76;37.80;100570.22;6185022;28;96672;-58
2024/01/29 13:13:19;;;;;;;;;23.60;22.20;;;;;26.08;38.99;100594.91;6184695;28;96409;-58
2024/01/29 13:16:23;;;;;;;;;22.50;20.50;;;;;25.51;40.42;100575.19;6185388;28;96402;-58
2024/01/29 13:19:26;;;;;;;;;24.40;21.60;;;;;25.08;41.28;100576.56;6185925;28;96352;-58
2024/01/29 13:22:29;;;;;;;;;22.33;20.00;;;;;24.63;43.30;100582.88;6177605;28;97059;-59
2024/01/29 13:25:34;;;;;;;;;21.60;20.00;;;;;24.15;44.47;100563.69;6165040;28;96361;-58
2024/01/29 13:28:37;;;;;;;;;27.40;22.00;;;;;23.93;45.44;100578.75;6165125;28;97249;-58
2024/01/29 13:31:40;;;;;;;;;22.00;21.00;;;;;23.59;45.78;100581.06;6159609;28;98851;-58
2024/01/29 13:34:43;;;;;;;;;21.00;21.00;;;;;23.21;47.35;100580.22;6182109;28;96501;-58
2024/01/29 13:37:46;;;;;;;;;24.00;23.00;;;;;22.95;48.57;100583.88;6178727;28;96606;-58
2024/01/29 13:40:52;;;;;;;;;22.00;18.50;;;;;22.71;49.04;100588.03;6175653;28;96843;-57
2024/01/29 13:43:55;;;;;;;;;24.00;21.20;;;;;22.36;50.85;100583.78;6196425;28;96649;-56
2024/01/29 13:46:58;;;;;;;;;22.60;21.00;;;;;22.20;50.89;100581.13;6179511;28;98554;-57
2024/01/29 13:50:03;;;;;;;;;23.00;21.20;;;;;22.02;52.04;100579.53;6212877;28;96355;-56
2024/01/29 13:53:06;;;;;;;;;22.40;21.40;;;;;21.67;53.10;100570.81;6203866;28;96241;-56
2024/01/29 13:56:11;;;;;;;;;23.00;19.25;;;;;21.26;54.62;100574.88;6217424;28;96749;-57